createdAt,value
2022-08-05T00:01:28.544Z,35.95
2022-08-05T00:06:33.318Z,35.90
2022-08-05T00:11:49.362Z,36.14
2022-08-05T00:16:58.691Z,35.51
2022-08-05T00:22:04.610Z,35.91
2022-08-05T00:27:28.337Z,35.72
2022-08-05T00:32:32.180Z,36.05
2022-08-05T00:37:52.662Z,35.64
2022-08-05T00:43:01.417Z,35.68
2022-08-05T00:48:05.785Z,36.07
2022-08-05T00:53:45.410Z,35.96
2022-08-05T00:58:34.193Z,35.76
2022-08-05T01:03:37.120Z,35.63
2022-08-05T01:08:44.262Z,35.68
2022-08-05T01:13:59.608Z,36.21
2022-08-05T01:19:36.804Z,36.18
2022-08-05T01:24:51.573Z,36.05
2022-08-05T01:29:58.890Z,36.02
2022-08-05T01:35:51.540Z,35.68
2022-08-05T01:40:49.253Z,35.74
2022-08-05T01:45:56.525Z,35.77
2022-08-05T01:51:00.438Z,36.58
2022-08-05T01:58:29.705Z,36.17
2022-08-05T02:01:41.562Z,36.34
2022-08-05T02:06:45.043Z,36.37
2022-08-05T02:12:06.571Z,36.50
2022-08-05T02:18:28.423Z,36.76
2022-08-05T02:22:48.427Z,37.22
2022-08-05T02:27:58.318Z,37.55
2022-08-05T02:33:06.632Z,37.46
2022-08-05T02:38:09.808Z,37.11
2022-08-05T02:43:18.906Z,37.27
2022-08-05T02:48:29.295Z,37.72
2022-08-05T02:53:39.072Z,37.97
2022-08-05T02:58:43.760Z,38.48
2022-08-05T03:04:02.748Z,38.24
2022-08-05T03:09:06.566Z,38.17
2022-08-05T03:14:13.558Z,38.16
2022-08-05T03:19:20.334Z,38.61
2022-08-05T03:24:36.100Z,38.45
2022-08-05T03:29:44.819Z,38.38
2022-08-05T03:35:04.554Z,38.88
2022-08-05T03:40:11.998Z,38.91
2022-08-05T03:45:21.869Z,38.90
2022-08-05T03:50:29.536Z,38.52
2022-08-05T03:56:04.250Z,39.02
2022-08-05T04:01:04.032Z,39.08
2022-08-05T04:06:08.747Z,38.62
2022-08-05T04:11:12.232Z,38.42
2022-08-05T04:16:15.122Z,38.43
2022-08-05T04:22:08.714Z,38.44
2022-08-05T04:26:49.306Z,38.09
2022-08-05T04:31:51.676Z,37.99
2022-08-05T04:36:54.559Z,38.11
2022-08-05T04:41:57.140Z,38.11
2022-08-05T04:47:09.495Z,39.28
2022-08-05T04:52:12.839Z,39.71
2022-08-05T04:57:15.369Z,39.27
2022-08-05T05:02:37.019Z,39.38
2022-08-05T05:07:52.887Z,38.88
2022-08-05T05:12:58.948Z,38.91
2022-08-05T05:18:07.874Z,38.92
2022-08-05T05:23:19.547Z,38.52
2022-08-05T05:28:22.921Z,38.80
2022-08-05T05:33:27.566Z,39.03
2022-08-05T05:38:30.301Z,38.70
2022-08-05T05:43:56.845Z,39.05
2022-08-05T05:48:57.331Z,38.88
2022-08-05T05:54:03.072Z,38.46
2022-08-05T05:59:07.785Z,38.44
2022-08-05T06:04:19.882Z,37.88
2022-08-05T06:09:50.230Z,37.73
2022-08-05T06:14:47.287Z,38.31
2022-08-05T06:19:56.818Z,38.14
2022-08-05T06:25:25.118Z,37.81
2022-08-05T06:30:27.506Z,38.21
2022-08-05T06:36:07.555Z,38.43
2022-08-05T06:40:53.739Z,38.48
2022-08-05T06:46:04.053Z,38.79
2022-08-05T06:51:21.825Z,39.31
2022-08-05T06:56:33.416Z,39.39
2022-08-05T07:01:40.725Z,38.80
2022-08-05T07:06:44.756Z,38.75
2022-08-05T07:11:51.413Z,37.81
2022-08-05T07:17:59.875Z,37.18
2022-08-05T07:22:28.346Z,37.39
2022-08-05T07:27:59.690Z,36.79
2022-08-05T07:32:55.927Z,36.18
2022-08-05T07:37:59.928Z,35.77
2022-08-05T07:43:04.853Z,34.75
2022-08-05T07:48:17.218Z,33.81
2022-08-05T07:53:50.487Z,33.60
2022-08-05T07:58:57.885Z,33.27
2022-08-05T08:04:01.792Z,32.63
2022-08-05T08:09:04.447Z,32.37
2022-08-05T08:14:07.969Z,31.56
2022-08-05T08:20:10.307Z,32.01
2022-08-05T08:24:50.956Z,31.92
2022-08-05T08:30:05.393Z,31.05
2022-08-05T08:35:16.856Z,30.87
2022-08-05T08:40:21.691Z,30.76
2022-08-05T08:45:29.638Z,30.54
2022-08-05T08:51:03.631Z,30.12
2022-08-05T08:56:03.512Z,29.79
2022-08-05T09:01:15.605Z,29.91
2022-08-05T09:06:28.203Z,29.39
2022-08-05T09:11:52.477Z,29.75
2022-08-05T09:16:56.621Z,29.46
2022-08-05T09:22:22.997Z,29.23
2022-08-05T09:28:05.175Z,29.56
2022-08-05T09:33:04.625Z,29.17
2022-08-05T09:38:12.343Z,29.12
2022-08-05T09:43:40.538Z,29.34
2022-08-05T09:48:55.400Z,29.82
2022-08-05T09:54:09.463Z,28.89
2022-08-05T09:59:17.104Z,28.45
2022-08-05T10:04:28.679Z,28.83
2022-08-05T10:09:44.848Z,28.85
2022-08-05T10:14:47.875Z,28.39
2022-08-05T10:20:03.677Z,27.86
2022-08-05T10:25:14.376Z,27.43
2022-08-05T10:32:47.264Z,27.53
2022-08-05T10:35:40.531Z,27.49
2022-08-05T10:40:58.097Z,27.72
2022-08-05T10:46:06.469Z,27.27
2022-08-05T10:51:21.777Z,27.61
2022-08-05T10:56:27.919Z,26.95
2022-08-05T11:01:54.123Z,26.98
2022-08-05T11:06:58.584Z,26.43
2022-08-05T11:12:01.135Z,25.59
2022-08-05T11:17:59.891Z,25.51
2022-08-05T11:22:54.065Z,25.04
2022-08-05T11:28:12.065Z,24.76
2022-08-05T11:33:48.790Z,24.25
2022-08-05T11:38:57.584Z,24.12
2022-08-05T11:44:08.095Z,23.84
2022-08-05T11:49:16.116Z,23.34
2022-08-05T11:54:33.508Z,23.33
2022-08-05T11:59:50.065Z,23.75
2022-08-05T12:04:59.065Z,24.03
2022-08-05T12:10:09.654Z,24.14
2022-08-05T12:15:38.536Z,23.62
2022-08-05T12:20:41.510Z,23.67
2022-08-05T12:25:53.308Z,23.02
2022-08-05T12:30:58.202Z,22.95
2022-08-05T12:36:08.969Z,22.41
2022-08-05T12:41:16.664Z,22.25
2022-08-05T12:46:29.733Z,21.94
2022-08-05T12:52:13.479Z,22.49
2022-08-05T12:57:10.153Z,22.41
2022-08-05T13:02:27.179Z,21.73
2022-08-05T13:07:57.786Z,21.51
2022-08-05T13:12:58.213Z,21.22
2022-08-05T13:18:01.065Z,20.82
2022-08-05T13:23:07.383Z,20.97
2022-08-05T13:28:10.710Z,20.48
2022-08-05T13:33:14.340Z,20.36
2022-08-05T13:38:38.176Z,20.54
2022-08-05T13:43:55.210Z,20.25
2022-08-05T13:49:00.908Z,20.00
2022-08-05T13:54:03.766Z,19.74
2022-08-05T13:59:20.427Z,19.91
2022-08-05T14:04:42.697Z,19.83
2022-08-05T14:09:53.365Z,19.39
2022-08-05T14:14:55.972Z,19.19
2022-08-05T14:20:04.662Z,19.11
2022-08-05T14:25:21.814Z,18.96
2022-08-05T14:30:26.386Z,19.17
2022-08-05T14:35:50.535Z,19.10
2022-08-05T14:46:08.056Z,18.40
2022-08-05T14:51:11.286Z,18.42
2022-08-05T14:56:22.675Z,18.25
2022-08-05T15:01:48.072Z,18.75
2022-08-05T15:06:49.303Z,18.03
2022-08-05T15:11:53.647Z,18.06
2022-08-05T15:16:56.250Z,17.59
2022-08-05T15:22:01.589Z,17.64
2022-08-05T15:27:04.192Z,16.92
2022-08-05T15:32:11.516Z,16.71
2022-08-05T15:37:14.268Z,16.20
2022-08-05T15:42:53.462Z,16.39
2022-08-05T15:47:42.476Z,17.23
2022-08-05T15:52:53.774Z,16.24
2022-08-05T15:57:57.362Z,15.80
2022-08-05T16:02:59.851Z,15.83
2022-08-05T16:08:02.532Z,16.37
2022-08-05T16:13:05.071Z,16.20
2022-08-05T16:18:09.071Z,17.04
2022-08-05T16:23:11.895Z,17.34
2022-08-05T16:28:15.598Z,17.38
2022-08-05T16:33:18.050Z,17.71
2022-08-05T16:38:25.051Z,17.83
2022-08-05T16:43:35.712Z,18.68
2022-08-05T16:48:39.622Z,19.46
2022-08-05T16:54:04.738Z,20.25
2022-08-05T16:59:08.681Z,20.82
2022-08-05T17:04:11.190Z,21.09
2022-08-05T17:09:17.635Z,21.57
2022-08-05T17:14:34.520Z,22.13
2022-08-05T17:19:42.167Z,22.81
2022-08-05T17:24:46.391Z,23.13
2022-08-05T17:30:02.519Z,23.11
2022-08-05T17:35:05.605Z,23.56
2022-08-05T17:40:13.101Z,23.73
2022-08-05T17:45:20.286Z,24.14
2022-08-05T17:50:28.358Z,24.79
2022-08-05T17:55:37.824Z,24.91
2022-08-05T18:00:45.457Z,25.27
2022-08-05T18:05:53.331Z,25.60
2022-08-05T18:10:56.280Z,25.63
2022-08-05T18:15:59.821Z,25.89
2022-08-05T18:21:03.562Z,26.16
2022-08-05T18:26:18.698Z,26.49
2022-08-05T18:31:22.125Z,26.67
2022-08-05T18:36:28.016Z,27.03
2022-08-05T18:41:57.225Z,27.12
2022-08-05T18:46:53.146Z,27.54
2022-08-05T18:52:14.079Z,27.73
2022-08-05T18:57:19.548Z,27.71
2022-08-05T19:02:28.520Z,28.16
2022-08-05T19:07:45.578Z,28.13
2022-08-05T19:12:50.395Z,28.33
2022-08-05T19:17:59.371Z,28.80
2022-08-05T19:23:22.503Z,28.59
2022-08-05T19:28:35.615Z,28.56
2022-08-05T19:33:40.660Z,28.86
2022-08-05T19:38:51.171Z,29.06
2022-08-05T19:44:05.675Z,29.40
2022-08-05T19:49:17.021Z,29.26
2022-08-05T19:54:26.928Z,29.53
2022-08-05T19:59:55.411Z,30.13
2022-08-05T20:04:59.217Z,30.00
2022-08-05T20:10:04.740Z,30.56
2022-08-05T20:15:08.679Z,30.91
2022-08-05T20:20:11.736Z,30.67
2022-08-05T20:25:14.127Z,30.99
2022-08-05T20:30:18.210Z,31.50
2022-08-05T20:35:22.275Z,31.32
2022-08-05T20:40:29.317Z,31.55
2022-08-05T20:45:55.754Z,31.70
2022-08-05T20:50:57.819Z,31.98
2022-08-05T20:56:08.825Z,31.98
2022-08-05T21:01:11.996Z,32.33
2022-08-05T21:06:28.555Z,32.88
2022-08-05T21:12:07.307Z,33.65
2022-08-05T21:16:54.681Z,33.95
2022-08-05T21:21:57.529Z,34.15
2022-08-05T21:27:00.273Z,34.66
2022-08-05T21:32:03.803Z,34.66
2022-08-05T21:37:08.608Z,34.97
2022-08-05T21:42:30.767Z,35.18
2022-08-05T21:47:56.745Z,35.27
2022-08-05T21:52:58.923Z,35.17
2022-08-05T21:58:10.422Z,35.82
2022-08-05T22:03:15.762Z,36.00
2022-08-05T22:08:23.988Z,36.12
2022-08-05T22:14:20.001Z,36.24
2022-08-05T22:18:58.439Z,36.00
2022-08-05T22:24:40.394Z,36.33
2022-08-05T22:29:54.287Z,36.45
2022-08-05T22:35:00.627Z,36.16
2022-08-05T22:40:04.027Z,36.39
2022-08-05T22:45:17.358Z,36.15
2022-08-05T22:50:23.573Z,36.46
2022-08-05T22:55:56.566Z,36.49
2022-08-05T23:01:03.479Z,36.17
2022-08-05T23:06:09.056Z,36.51
2022-08-05T23:11:12.611Z,36.52
2022-08-05T23:16:26.208Z,36.26
2022-08-05T23:21:42.608Z,36.29
2022-08-05T23:26:45.691Z,36.33
2022-08-05T23:31:50.393Z,36.38
2022-08-05T23:36:52.981Z,36.33
2022-08-05T23:41:57.755Z,36.40
2022-08-05T23:47:15.105Z,36.93
2022-08-05T23:52:27.510Z,37.13
2022-08-05T23:57:30.751Z,37.39
